Time;durP1;ratioP1;P1;durP2;ratioP2;P2;SDS_P1;SDS_P2;PMS_P1;PMS_P2;Temp;Humidity;BMP_temperature;BMP_pressure;BME280_temperature;BME280_humidity;BME280_pressure;Samples;Min_cycle;Max_cycle;Signal;HPM_P1;HPM_P2
2023/10/26 00:01:46;;;;;;;0.10;0.10;;;;;;;;;;4992901;28;20042;-79
2023/10/26 00:04:13;;;;;;;0.10;0.10;;;;;;;;;;4990413;28;20042;-78
2023/10/26 00:06:42;;;;;;;0.10;0.10;;;;;;;;;;4993865;28;20112;-79
2023/10/26 00:09:09;;;;;;;0.10;0.10;;;;;;;;;;5000324;28;20570;-79
2023/10/26 00:11:37;;;;;;;0.08;0.08;;;;;;;;;;4990342;28;20050;-79
2023/10/26 00:14:04;;;;;;;0.10;0.10;;;;;;;;;;4985839;28;20045;-79
2023/10/26 00:16:32;;;;;;;0.10;0.10;;;;;;;;;;4995648;28;20060;-79
2023/10/26 00:18:59;;;;;;;0.05;0.05;;;;;;;;;;4987918;28;20061;-78
2023/10/26 00:21:27;;;;;;;0.20;0.20;;;;;;;;;;4990109;28;20050;-79
2023/10/26 00:23:54;;;;;;;0.15;0.15;;;;;;;;;;4995186;28;20104;-81
2023/10/26 00:26:22;;;;;;;0.10;0.10;;;;;;;;;;4990273;28;20056;-79
2023/10/26 00:28:51;;;;;;;0.08;0.08;;;;;;;;;;4994219;28;20050;-78
2023/10/26 00:31:19;;;;;;;0.10;0.10;;;;;;;;;;5026867;23;20062;-72
2023/10/26 00:33:46;;;;;;;0.40;0.40;;;;;;;;;;5012047;28;20063;-72
2023/10/26 00:36:14;;;;;;;0.10;0.10;;;;;;;;;;5011957;28;20056;-72
2023/10/26 00:38:42;;;;;;;0.10;0.10;;;;;;;;;;5009853;28;20127;-72
2023/10/26 00:41:10;;;;;;;0.00;0.00;;;;;;;;;;5009656;28;20423;-72
2023/10/26 00:43:37;;;;;;;0.10;0.10;;;;;;;;;;5007936;28;20438;-72
2023/10/26 00:46:10;;;;;;;0.08;0.08;;;;;;;;;;5006421;28;20041;-72
2023/10/26 00:48:38;;;;;;;0.10;0.10;;;;;;;;;;5015231;28;20081;-72
2023/10/26 00:51:06;;;;;;;0.10;0.10;;;;;;;;;;5011191;28;20581;-73
2023/10/26 00:53:34;;;;;;;0.10;0.10;;;;;;;;;;5014655;28;20045;-72
2023/10/26 00:56:02;;;;;;;0.15;0.15;;;;;;;;;;5017379;28;20092;-72
2023/10/26 00:58:30;;;;;;;0.30;0.30;;;;;;;;;;5011674;28;20511;-72
2023/10/26 01:00:58;;;;;;;0.57;0.45;;;;;;;;;;5009144;28;20065;-72
2023/10/26 01:03:28;;;;;;;0.10;0.10;;;;;;;;;;5011419;28;20042;-73
2023/10/26 01:05:55;;;;;;;0.10;0.10;;;;;;;;;;5009942;28;20042;-72
2023/10/26 01:08:23;;;;;;;0.32;0.30;;;;;;;;;;5012782;28;20050;-72
2023/10/26 01:10:51;;;;;;;0.10;0.10;;;;;;;;;;5008628;28;20053;-72
2023/10/26 01:13:19;;;;;;;0.10;0.10;;;;;;;;;;5022185;28;20073;-72
2023/10/26 01:15:46;;;;;;;0.28;0.28;;;;;;;;;;5011005;28;20473;-72
2023/10/26 01:18:13;;;;;;;0.00;0.00;;;;;;;;;;5008006;28;20050;-72
2023/10/26 01:20:42;;;;;;;0.10;0.10;;;;;;;;;;5009638;28;20038;-72
2023/10/26 01:23:10;;;;;;;0.08;0.08;;;;;;;;;;5018979;28;20052;-72
2023/10/26 01:25:37;;;;;;;0.00;0.00;;;;;;;;;;5008049;28;20100;-72
2023/10/26 01:28:07;;;;;;;0.10;0.10;;;;;;;;;;5018157;28;20045;-72
2023/10/26 01:30:35;;;;;;;0.10;0.10;;;;;;;;;;5018292;28;20033;-73
2023/10/26 01:33:03;;;;;;;0.10;0.10;;;;;;;;;;4997955;28;20058;-72
2023/10/26 01:35:38;;;;;;;0.08;0.08;;;;;;;;;;5008435;28;20042;-72
2023/10/26 01:38:05;;;;;;;0.00;0.00;;;;;;;;;;5017011;28;20060;-72
2023/10/26 01:40:33;;;;;;;0.20;0.20;;;;;;;;;;5008070;28;20499;-72
2023/10/26 01:43:01;;;;;;;0.05;0.05;;;;;;;;;;5019328;28;20052;-70
2023/10/26 01:45:28;;;;;;;0.98;0.98;;;;;;;;;;5013110;28;20056;-70
2023/10/26 01:47:59;;;;;;;0.10;0.10;;;;;;;;;;5013024;28;20050;-72
2023/10/26 01:50:27;;;;;;;0.00;0.00;;;;;;;;;;5015946;28;20056;-71
2023/10/26 01:52:54;;;;;;;0.08;0.08;;;;;;;;;;5008362;28;20054;-73
2023/10/26 01:55:23;;;;;;;0.10;0.10;;;;;;;;;;5008568;28;20058;-71
2023/10/26 01:57:50;;;;;;;0.20;0.20;;;;;;;;;;5012358;28;20099;-71
2023/10/26 02:00:18;;;;;;;0.03;0.03;;;;;;;;;;5009262;28;20046;-71
2023/10/26 02:02:47;;;;;;;0.10;0.10;;;;;;;;;;5011582;28;20050;-72
2023/10/26 02:05:15;;;;;;;0.10;0.10;;;;;;;;;;5013717;28;20100;-72
2023/10/26 02:07:43;;;;;;;0.10;0.10;;;;;;;;;;5007255;28;20046;-72
2023/10/26 02:10:15;;;;;;;0.00;0.00;;;;;;;;;;5014982;28;20128;-72
2023/10/26 02:12:42;;;;;;;0.10;0.10;;;;;;;;;;5010168;28;20061;-72
2023/10/26 02:15:11;;;;;;;0.00;0.00;;;;;;;;;;5013622;28;20045;-72
2023/10/26 02:17:39;;;;;;;0.10;0.10;;;;;;;;;;5019542;28;20052;-73
2023/10/26 02:20:07;;;;;;;0.10;0.10;;;;;;;;;;5017258;28;20053;-71
2023/10/26 02:22:34;;;;;;;0.52;0.52;;;;;;;;;;5019437;28;20044;-72
2023/10/26 02:25:02;;;;;;;0.00;0.00;;;;;;;;;;5015220;28;20502;-72
2023/10/26 02:27:30;;;;;;;0.10;0.10;;;;;;;;;;5009939;28;20397;-72
2023/10/26 02:29:57;;;;;;;0.00;0.00;;;;;;;;;;5006300;28;20458;-72
2023/10/26 02:32:25;;;;;;;0.10;0.10;;;;;;;;;;5011559;28;20041;-71
2023/10/26 02:34:53;;;;;;;0.45;0.45;;;;;;;;;;5008271;28;20163;-72
2023/10/26 02:37:20;;;;;;;0.63;0.63;;;;;;;;;;5008047;28;20786;-71
2023/10/26 02:39:48;;;;;;;0.10;0.10;;;;;;;;;;5011804;28;20045;-72
2023/10/26 02:42:15;;;;;;;0.10;0.10;;;;;;;;;;5016250;28;20519;-73
2023/10/26 02:44:44;;;;;;;0.10;0.10;;;;;;;;;;5009775;28;20054;-71
2023/10/26 02:47:11;;;;;;;0.15;0.15;;;;;;;;;;5018329;28;20053;-71
2023/10/26 02:49:39;;;;;;;0.10;0.10;;;;;;;;;;5014187;28;20080;-72
2023/10/26 02:52:07;;;;;;;0.10;0.10;;;;;;;;;;5017987;28;20519;-71
2023/10/26 02:54:35;;;;;;;0.10;0.10;;;;;;;;;;5020037;28;20403;-71
2023/10/26 02:57:03;;;;;;;0.00;0.00;;;;;;;;;;5003256;28;20133;-72
2023/10/26 02:59:30;;;;;;;0.10;0.10;;;;;;;;;;4995483;28;20046;-71
2023/10/26 03:01:58;;;;;;;0.00;0.00;;;;;;;;;;4996320;28;20054;-71
2023/10/26 03:04:25;;;;;;;0.00;0.00;;;;;;;;;;4999151;28;20092;-72
2023/10/26 03:06:53;;;;;;;0.10;0.10;;;;;;;;;;4997436;28;20061;-71
2023/10/26 03:09:22;;;;;;;0.10;0.10;;;;;;;;;;4997185;28;20049;-71
2023/10/26 03:11:51;;;;;;;0.20;0.20;;;;;;;;;;4997931;28;20049;-71
2023/10/26 03:14:19;;;;;;;0.25;0.25;;;;;;;;;;5000562;28;20116;-71
2023/10/26 03:16:47;;;;;;;0.10;0.10;;;;;;;;;;4998579;28;20108;-71
2023/10/26 03:19:15;;;;;;;0.05;0.05;;;;;;;;;;5017500;28;20060;-71
2023/10/26 03:21:43;;;;;;;0.20;0.20;;;;;;;;;;5000744;28;20158;-72
2023/10/26 03:24:11;;;;;;;0.10;0.10;;;;;;;;;;4991163;28;20091;-71
2023/10/26 03:26:38;;;;;;;0.13;0.13;;;;;;;;;;4994560;28;20065;-73
2023/10/26 03:29:06;;;;;;;0.10;0.10;;;;;;;;;;4995801;28;20054;-71
2023/10/26 03:31:35;;;;;;;0.10;0.10;;;;;;;;;;4998892;28;20084;-71
2023/10/26 03:34:03;;;;;;;0.10;0.10;;;;;;;;;;4995581;28;20409;-72
2023/10/26 03:36:30;;;;;;;0.52;0.52;;;;;;;;;;4997991;28;20223;-72
2023/10/26 03:38:58;;;;;;;0.45;0.22;;;;;;;;;;5011617;28;20078;-72
2023/10/26 03:41:25;;;;;;;0.10;0.10;;;;;;;;;;5000728;28;20527;-72
2023/10/26 03:43:54;;;;;;;0.10;0.10;;;;;;;;;;5003566;28;20484;-72
2023/10/26 03:46:22;;;;;;;0.10;0.10;;;;;;;;;;4994529;28;20054;-72
2023/10/26 03:48:50;;;;;;;0.10;0.10;;;;;;;;;;4995255;28;20042;-71
2023/10/26 03:51:17;;;;;;;0.10;0.10;;;;;;;;;;4996659;28;20041;-71
2023/10/26 03:53:45;;;;;;;0.00;0.00;;;;;;;;;;4996333;28;20129;-72
2023/10/26 03:56:12;;;;;;;0.10;0.10;;;;;;;;;;4994814;28;20525;-72
2023/10/26 03:58:40;;;;;;;0.10;0.10;;;;;;;;;;4996446;28;20042;-73
2023/10/26 04:01:07;;;;;;;0.10;0.10;;;;;;;;;;4996210;28;21444;-72
2023/10/26 04:03:35;;;;;;;0.10;0.10;;;;;;;;;;4996711;28;22819;-72
2023/10/26 04:06:03;;;;;;;0.20;0.20;;;;;;;;;;4996222;28;20043;-72
2023/10/26 04:08:30;;;;;;;0.00;0.00;;;;;;;;;;5003457;28;20514;-72
2023/10/26 04:10:58;;;;;;;0.15;0.15;;;;;;;;;;5001648;28;20389;-72
2023/10/26 04:13:30;;;;;;;0.10;0.10;;;;;;;;;;4998559;28;20053;-72
2023/10/26 04:16:02;;;;;;;0.28;0.28;;;;;;;;;;4998012;28;20077;-72
2023/10/26 04:18:29;;;;;;;0.17;0.17;;;;;;;;;;5000338;28;20054;-72
2023/10/26 04:20:57;;;;;;;0.20;0.20;;;;;;;;;;4999255;28;20042;-72
2023/10/26 04:23:24;;;;;;;0.25;0.25;;;;;;;;;;4996468;28;20541;-72
2023/10/26 04:25:52;;;;;;;0.10;0.10;;;;;;;;;;4997183;28;20070;-72
2023/10/26 04:28:22;;;;;;;0.25;0.20;;;;;;;;;;4996750;28;20058;-72
2023/10/26 04:30:50;;;;;;;0.10;0.10;;;;;;;;;;4996281;28;20050;-72
2023/10/26 04:33:17;;;;;;;0.43;0.43;;;;;;;;;;4992262;28;20132;-73
2023/10/26 04:35:46;;;;;;;0.10;0.10;;;;;;;;;;5001700;28;20160;-73
2023/10/26 04:38:14;;;;;;;0.60;0.60;;;;;;;;;;4985621;28;20132;-72
2023/10/26 04:40:43;;;;;;;0.55;0.55;;;;;;;;;;5001883;28;20046;-72
2023/10/26 04:43:10;;;;;;;0.20;0.20;;;;;;;;;;5002276;28;20042;-71
2023/10/26 04:45:37;;;;;;;0.10;0.10;;;;;;;;;;5007656;28;20042;-72
2023/10/26 04:48:05;;;;;;;0.15;0.15;;;;;;;;;;5000826;28;20061;-72
2023/10/26 04:50:33;;;;;;;0.00;0.00;;;;;;;;;;4991760;28;20042;-71
2023/10/26 04:53:02;;;;;;;0.50;0.47;;;;;;;;;;4999623;28;20072;-72
2023/10/26 04:55:36;;;;;;;0.28;0.28;;;;;;;;;;5003335;28;20046;-72
2023/10/26 04:58:04;;;;;;;0.10;0.10;;;;;;;;;;5002572;28;20049;-72
2023/10/26 05:00:32;;;;;;;0.30;0.30;;;;;;;;;;4999487;28;20046;-72
2023/10/26 05:02:59;;;;;;;0.10;0.10;;;;;;;;;;4987732;28;20054;-73
2023/10/26 05:05:27;;;;;;;0.10;0.10;;;;;;;;;;4994268;28;20577;-72
2023/10/26 05:07:55;;;;;;;0.10;0.10;;;;;;;;;;4998460;28;20041;-73
2023/10/26 05:10:22;;;;;;;0.10;0.10;;;;;;;;;;5005352;28;20396;-71
2023/10/26 05:12:49;;;;;;;0.45;0.45;;;;;;;;;;4999553;28;20618;-71
2023/10/26 05:15:18;;;;;;;0.10;0.10;;;;;;;;;;5001190;28;20112;-71
2023/10/26 05:17:46;;;;;;;0.47;0.45;;;;;;;;;;4995934;28;20046;-72
2023/10/26 05:20:13;;;;;;;0.20;0.20;;;;;;;;;;4998373;28;20129;-72
2023/10/26 05:22:41;;;;;;;0.08;0.08;;;;;;;;;;4997587;28;20057;-72
2023/10/26 05:25:11;;;;;;;0.10;0.10;;;;;;;;;;4996762;28;20056;-72
2023/10/26 05:27:38;;;;;;;0.10;0.10;;;;;;;;;;4996707;28;20132;-72
2023/10/26 05:30:06;;;;;;;0.10;0.10;;;;;;;;;;4997821;28;20589;-72
2023/10/26 05:32:34;;;;;;;0.13;0.13;;;;;;;;;;4983109;28;20531;-72
2023/10/26 05:35:01;;;;;;;0.17;0.17;;;;;;;;;;5002878;28;20049;-72
2023/10/26 05:37:29;;;;;;;0.20;0.20;;;;;;;;;;5004068;28;20100;-73
2023/10/26 05:39:56;;;;;;;0.20;0.20;;;;;;;;;;5002724;28;20046;-72
2023/10/26 05:42:24;;;;;;;0.30;0.30;;;;;;;;;;5001020;28;20128;-74
2023/10/26 05:44:55;;;;;;;0.25;0.25;;;;;;;;;;4998896;28;20054;-72
2023/10/26 05:47:23;;;;;;;0.10;0.10;;;;;;;;;;5000925;28;20479;-72
2023/10/26 05:49:50;;;;;;;0.30;0.30;;;;;;;;;;5003192;28;20417;-72
2023/10/26 05:52:18;;;;;;;0.10;0.10;;;;;;;;;;5002090;28;20053;-72
2023/10/26 05:54:45;;;;;;;0.10;0.10;;;;;;;;;;4997591;28;20085;-72
2023/10/26 05:57:13;;;;;;;0.10;0.10;;;;;;;;;;5002212;28;20046;-72
2023/10/26 05:59:41;;;;;;;0.10;0.10;;;;;;;;;;5003576;28;20396;-72
2023/10/26 06:02:09;;;;;;;0.20;0.20;;;;;;;;;;4999460;28;20072;-72
2023/10/26 06:04:36;;;;;;;0.35;0.35;;;;;;;;;;4994260;28;20058;-73
2023/10/26 06:07:04;;;;;;;0.10;0.10;;;;;;;;;;4998762;28;20092;-73
2023/10/26 06:09:31;;;;;;;0.08;0.08;;;;;;;;;;5003911;28;20568;-72
2023/10/26 06:11:59;;;;;;;0.10;0.10;;;;;;;;;;5002677;28;20088;-72
2023/10/26 06:14:27;;;;;;;0.20;0.20;;;;;;;;;;5005531;28;20556;-72
2023/10/26 06:16:54;;;;;;;0.00;0.00;;;;;;;;;;5007402;28;20048;-72
2023/10/26 06:19:22;;;;;;;0.17;0.17;;;;;;;;;;5009233;28;20045;-71
2023/10/26 06:21:49;;;;;;;0.10;0.10;;;;;;;;;;5008078;28;20053;-72
2023/10/26 06:24:16;;;;;;;0.10;0.10;;;;;;;;;;5009586;28;24001;-72
2023/10/26 06:26:44;;;;;;;0.00;0.00;;;;;;;;;;5012306;28;20048;-72
2023/10/26 06:29:23;;;;;;;0.30;0.30;;;;;;;;;;5011482;28;20053;-77
2023/10/26 06:31:50;;;;;;;0.13;0.13;;;;;;;;;;4988912;28;20046;-76
2023/10/26 06:34:18;;;;;;;0.35;0.35;;;;;;;;;;4981438;28;20056;-76
2023/10/26 06:36:45;;;;;;;0.10;0.10;;;;;;;;;;5007903;28;20072;-74
2023/10/26 06:39:13;;;;;;;0.10;0.10;;;;;;;;;;5005293;28;20061;-75
2023/10/26 06:41:40;;;;;;;0.00;0.00;;;;;;;;;;5007569;28;20061;-74
2023/10/26 06:44:13;;;;;;;0.15;0.15;;;;;;;;;;4991456;28;20054;-74
2023/10/26 06:46:40;;;;;;;0.05;0.05;;;;;;;;;;5005316;28;20054;-74
2023/10/26 06:49:08;;;;;;;0.10;0.10;;;;;;;;;;5003811;28;20112;-74
2023/10/26 06:51:56;;;;;;;0.50;0.50;;;;;;;;;;5003907;28;20065;-74
2023/10/26 06:54:23;;;;;;;0.10;0.10;;;;;;;;;;5001556;28;20096;-74
2023/10/26 06:56:51;;;;;;;0.10;0.10;;;;;;;;;;5006993;28;20424;-75
2023/10/26 06:59:19;;;;;;;0.10;0.10;;;;;;;;;;5005989;28;20046;-75
2023/10/26 07:01:46;;;;;;;0.10;0.10;;;;;;;;;;5005455;28;20046;-75
2023/10/26 07:04:35;;;;;;;0.10;0.10;;;;;;;;;;5005147;28;20081;-76
2023/10/26 07:07:03;;;;;;;0.17;0.17;;;;;;;;;;4987685;28;20042;-76
2023/10/26 07:09:30;;;;;;;0.80;0.80;;;;;;;;;;5006147;28;20558;-75
2023/10/26 07:11:58;;;;;;;0.22;0.22;;;;;;;;;;5004633;28;20050;-76
2023/10/26 07:14:26;;;;;;;0.13;0.13;;;;;;;;;;5004307;28;20052;-82
2023/10/26 07:16:54;;;;;;;0.10;0.10;;;;;;;;;;5000901;28;20058;-80
2023/10/26 07:19:22;;;;;;;0.00;0.00;;;;;;;;;;5002886;28;20057;-80
2023/10/26 07:21:49;;;;;;;0.63;0.25;;;;;;;;;;5006019;28;20038;-80
2023/10/26 07:24:17;;;;;;;0.22;0.22;;;;;;;;;;5004416;28;20481;-81
2023/10/26 07:26:44;;;;;;;0.65;0.55;;;;;;;;;;5009005;28;20054;-77
2023/10/26 07:29:12;;;;;;;0.10;0.10;;;;;;;;;;4998613;28;20348;-77
2023/10/26 07:31:40;;;;;;;0.38;0.20;;;;;;;;;;5008046;28;20049;-78
2023/10/26 07:34:07;;;;;;;0.30;0.30;;;;;;;;;;5003387;28;21183;-77
2023/10/26 07:36:35;;;;;;;2.05;0.63;;;;;;;;;;5003755;28;20062;-77
2023/10/26 07:39:03;;;;;;;0.10;0.10;;;;;;;;;;5005208;28;20054;-77
2023/10/26 07:41:51;;;;;;;0.10;0.10;;;;;;;;;;5006961;28;20193;-77
2023/10/26 07:44:38;;;;;;;0.40;0.40;;;;;;;;;;5003863;28;20108;-77
2023/10/26 07:47:09;;;;;;;0.30;0.30;;;;;;;;;;4994593;28;20042;-77
2023/10/26 07:49:36;;;;;;;0.13;0.13;;;;;;;;;;5003330;28;20046;-77
2023/10/26 07:52:05;;;;;;;0.20;0.20;;;;;;;;;;5000708;28;20089;-76
2023/10/26 07:54:32;;;;;;;0.63;0.63;;;;;;;;;;5004289;28;20045;-79
2023/10/26 07:57:00;;;;;;;7.57;1.05;;;;;;;;;;5007186;28;20508;-78
2023/10/26 07:59:29;;;;;;;0.10;0.10;;;;;;;;;;5003160;28;20093;-77
2023/10/26 08:01:57;;;;;;;0.13;0.13;;;;;;;;;;4999183;28;20050;-77
2023/10/26 08:04:25;;;;;;;0.20;0.20;;;;;;;;;;5000781;28;20056;-77
2023/10/26 08:06:52;;;;;;;0.10;0.10;;;;;;;;;;5009151;28;20128;-78
2023/10/26 08:09:20;;;;;;;2.10;0.85;;;;;;;;;;5008288;28;20125;-77
2023/10/26 08:11:47;;;;;;;0.10;0.10;;;;;;;;;;5001015;28;20050;-77
2023/10/26 08:14:15;;;;;;;0.10;0.10;;;;;;;;;;5008709;28;20066;-78
2023/10/26 08:17:02;;;;;;;0.40;0.35;;;;;;;;;;4996895;28;20050;-78
2023/10/26 08:19:30;;;;;;;0.15;0.15;;;;;;;;;;5014814;28;20408;-77
2023/10/26 08:21:57;;;;;;;0.40;0.40;;;;;;;;;;4991333;28;20122;-77
2023/10/26 08:24:25;;;;;;;0.10;0.10;;;;;;;;;;5011080;28;20053;-78
2023/10/26 08:26:53;;;;;;;0.77;0.13;;;;;;;;;;5012412;28;20038;-77
2023/10/26 08:29:21;;;;;;;0.10;0.10;;;;;;;;;;5012796;28;20499;-76
2023/10/26 08:31:56;;;;;;;0.20;0.20;;;;;;;;;;5012139;28;20057;-77
2023/10/26 08:34:23;;;;;;;0.10;0.10;;;;;;;;;;4995489;28;20112;-75
2023/10/26 08:36:51;;;;;;;0.10;0.10;;;;;;;;;;4994931;28;20080;-77
2023/10/26 08:39:39;;;;;;;0.15;0.10;;;;;;;;;;5012715;28;20065;-77
2023/10/26 08:42:06;;;;;;;0.00;0.00;;;;;;;;;;5012651;28;20092;-77
2023/10/26 08:44:34;;;;;;;0.10;0.10;;;;;;;;;;5012660;28;20042;-76
2023/10/26 08:47:05;;;;;;;0.30;0.30;;;;;;;;;;5013607;28;20073;-76
2023/10/26 08:49:34;;;;;;;0.35;0.35;;;;;;;;;;4992539;28;20085;-78
2023/10/26 08:52:03;;;;;;;0.20;0.20;;;;;;;;;;4994198;28;20439;-76
2023/10/26 08:54:31;;;;;;;0.05;0.05;;;;;;;;;;5012350;28;20141;-76
2023/10/26 08:57:05;;;;;;;0.13;0.10;;;;;;;;;;5011621;28;20057;-77
2023/10/26 08:59:32;;;;;;;0.10;0.10;;;;;;;;;;5009997;28;20041;-76
2023/10/26 09:02:00;;;;;;;0.00;0.00;;;;;;;;;;4994573;28;20111;-77
2023/10/26 09:04:28;;;;;;;0.10;0.10;;;;;;;;;;5012489;28;20108;-76
2023/10/26 09:06:55;;;;;;;0.00;0.00;;;;;;;;;;5011696;28;20050;-76
2023/10/26 09:09:23;;;;;;;0.28;0.28;;;;;;;;;;5011978;28;20046;-76
2023/10/26 09:11:50;;;;;;;0.03;0.03;;;;;;;;;;5011502;28;20042;-75
2023/10/26 09:14:19;;;;;;;0.10;0.10;;;;;;;;;;4994585;28;20464;-75
2023/10/26 09:16:47;;;;;;;0.10;0.10;;;;;;;;;;5012085;28;20054;-76
2023/10/26 09:19:18;;;;;;;1.85;0.80;;;;;;;;;;5011907;28;20065;-77
2023/10/26 09:21:54;;;;;;;0.10;0.10;;;;;;;;;;4994646;28;20133;-76
2023/10/26 09:24:24;;;;;;;0.10;0.10;;;;;;;;;;5012057;28;20053;-77
2023/10/26 09:26:53;;;;;;;0.10;0.10;;;;;;;;;;5010800;28;20524;-76
2023/10/26 09:29:21;;;;;;;0.73;0.40;;;;;;;;;;5011992;28;20092;-75
2023/10/26 09:31:53;;;;;;;0.08;0.08;;;;;;;;;;5012340;28;20054;-76
2023/10/26 09:34:24;;;;;;;0.22;0.20;;;;;;;;;;5012259;28;20132;-81
2023/10/26 09:37:02;;;;;;;0.10;0.10;;;;;;;;;;4998294;28;20093;-76
2023/10/26 09:39:31;;;;;;;0.10;0.10;;;;;;;;;;5009353;28;20104;-77
2023/10/26 09:42:01;;;;;;;0.20;0.20;;;;;;;;;;5010749;28;20049;-76
2023/10/26 09:44:29;;;;;;;0.00;0.00;;;;;;;;;;5011244;28;20057;-76
2023/10/26 09:46:57;;;;;;;0.03;0.03;;;;;;;;;;4992289;28;20054;-76
2023/10/26 09:49:26;;;;;;;1.08;0.52;;;;;;;;;;4999712;28;20484;-75
2023/10/26 09:51:54;;;;;;;0.30;0.30;;;;;;;;;;5011745;28;20054;-76
2023/10/26 09:54:24;;;;;;;0.10;0.10;;;;;;;;;;5011637;28;20496;-77
2023/10/26 09:57:12;;;;;;;0.10;0.10;;;;;;;;;;5011340;28;20411;-76
2023/10/26 09:59:39;;;;;;;0.10;0.10;;;;;;;;;;5001634;28;20082;-76
2023/10/26 10:02:13;;;;;;;0.30;0.30;;;;;;;;;;5008886;28;20559;-76
2023/10/26 10:04:41;;;;;;;0.10;0.10;;;;;;;;;;5000158;28;20046;-77
2023/10/26 10:07:09;;;;;;;0.28;0.28;;;;;;;;;;4994940;28;20503;-76
2023/10/26 10:10:03;;;;;;;0.17;0.17;;;;;;;;;;5011913;28;20570;-76
2023/10/26 10:12:31;;;;;;;0.00;0.00;;;;;;;;;;4981049;28;20052;-76
2023/10/26 10:15:03;;;;;;;0.05;0.05;;;;;;;;;;4992816;28;20073;-76
2023/10/26 10:17:51;;;;;;;;;;;;;;;;;;4993318;28;20042;-76
2023/10/26 10:20:18;;;;;;;0.00;0.00;;;;;;;;;;5010087;28;19921;-76
2023/10/26 10:22:49;;;;;;;0.20;0.20;;;;;;;;;;5011161;28;20116;-75
2023/10/26 10:25:18;;;;;;;0.00;0.00;;;;;;;;;;5004829;28;20046;-76
2023/10/26 10:27:48;;;;;;;0.10;0.10;;;;;;;;;;5000932;28;20042;-76
2023/10/26 10:30:19;;;;;;;0.30;0.30;;;;;;;;;;4989941;28;20050;-75
2023/10/26 10:32:46;;;;;;;3.75;0.43;;;;;;;;;;5009410;28;20061;-75
2023/10/26 10:35:33;;;;;;;0.20;0.20;;;;;;;;;;4994403;28;20579;-76
2023/10/26 10:38:13;;;;;;;0.13;0.13;;;;;;;;;;5000664;28;20140;-75
2023/10/26 10:40:41;;;;;;;0.80;0.50;;;;;;;;;;5011001;28;20129;-76
2023/10/26 10:43:09;;;;;;;0.10;0.10;;;;;;;;;;5003461;28;20061;-78
2023/10/26 10:45:37;;;;;;;0.00;0.00;;;;;;;;;;5005134;28;20119;-77
2023/10/26 10:48:07;;;;;;;0.10;0.10;;;;;;;;;;4996465;28;20050;-77
2023/10/26 10:50:35;;;;;;;0.17;0.17;;;;;;;;;;5001356;28;20511;-77
2023/10/26 10:53:02;;;;;;;0.00;0.00;;;;;;;;;;4993114;28;20050;-77
2023/10/26 10:55:32;;;;;;;0.10;0.10;;;;;;;;;;4996442;28;20049;-79
2023/10/26 10:58:01;;;;;;;0.10;0.10;;;;;;;;;;4998595;28;20050;-77
2023/10/26 11:00:42;;;;;;;0.00;0.00;;;;;;;;;;5001259;28;20046;-77
2023/10/26 11:03:17;;;;;;;0.10;0.10;;;;;;;;;;4993613;28;20759;-77
2023/10/26 11:05:44;;;;;;;0.25;0.25;;;;;;;;;;5009159;28;20133;-76
2023/10/26 11:08:12;;;;;;;0.00;0.00;;;;;;;;;;5005710;28;20145;-76
2023/10/26 11:10:40;;;;;;;0.10;0.10;;;;;;;;;;5008831;28;20128;-77
2023/10/26 11:13:07;;;;;;;0.00;0.00;;;;;;;;;;5008083;28;20077;-77
2023/10/26 11:15:35;;;;;;;0.35;0.35;;;;;;;;;;5001708;28;20484;-77
2023/10/26 11:18:04;;;;;;;0.00;0.00;;;;;;;;;;5003693;28;20060;-77
2023/10/26 11:20:42;;;;;;;0.10;0.10;;;;;;;;;;5006166;28;20049;-76
2023/10/26 11:23:10;;;;;;;0.00;0.00;;;;;;;;;;5006013;28;20519;-77
2023/10/26 11:25:38;;;;;;;0.00;0.00;;;;;;;;;;5006026;28;20046;-77
2023/10/26 11:28:06;;;;;;;0.25;0.25;;;;;;;;;;5005028;28;20416;-77
2023/10/26 11:30:50;;;;;;;0.08;0.08;;;;;;;;;;5001930;28;20092;-78
2023/10/26 11:33:30;;;;;;;0.00;0.00;;;;;;;;;;5003854;28;20085;-77
2023/10/26 11:35:58;;;;;;;0.00;0.00;;;;;;;;;;5003418;28;20049;-76
2023/10/26 11:38:31;;;;;;;0.00;0.00;;;;;;;;;;4998104;28;20138;-77
2023/10/26 11:40:58;;;;;;;0.00;0.00;;;;;;;;;;5000486;28;20045;-77
2023/10/26 11:43:33;;;;;;;0.15;0.15;;;;;;;;;;5001366;28;20137;-78
2023/10/26 11:46:03;;;;;;;0.20;0.20;;;;;;;;;;5003146;28;20050;-77
2023/10/26 11:48:32;;;;;;;0.10;0.10;;;;;;;;;;5005695;28;20037;-76
2023/10/26 11:51:02;;;;;;;0.10;0.10;;;;;;;;;;5003492;28;20523;-76
2023/10/26 11:53:30;;;;;;;0.00;0.00;;;;;;;;;;5003472;28;20077;-77
2023/10/26 11:55:59;;;;;;;0.25;0.25;;;;;;;;;;4992106;28;20577;-77
2023/10/26 11:58:26;;;;;;;0.00;0.00;;;;;;;;;;5002749;28;20049;-77
2023/10/26 12:00:54;;;;;;;0.00;0.00;;;;;;;;;;5004119;28;20527;-77
2023/10/26 12:03:21;;;;;;;0.22;0.22;;;;;;;;;;5003968;28;20777;-78
2023/10/26 12:05:49;;;;;;;0.00;0.00;;;;;;;;;;5005040;28;20507;-77
2023/10/26 12:08:17;;;;;;;0.17;0.17;;;;;;;;;;5003607;28;20682;-77
2023/10/26 12:10:44;;;;;;;0.00;0.00;;;;;;;;;;5000972;28;20058;-76
2023/10/26 12:13:14;;;;;;;0.10;0.10;;;;;;;;;;5006623;28;20054;-77
2023/10/26 12:15:42;;;;;;;0.00;0.00;;;;;;;;;;5003556;28;20148;-77
2023/10/26 12:18:09;;;;;;;0.00;0.00;;;;;;;;;;5004157;28;20567;-76
2023/10/26 12:20:38;;;;;;;0.20;0.20;;;;;;;;;;5007295;28;20049;-78
2023/10/26 12:23:06;;;;;;;0.00;0.00;;;;;;;;;;5005324;28;20465;-78
2023/10/26 12:25:33;;;;;;;0.10;0.10;;;;;;;;;;5007928;28;20046;-77
2023/10/26 12:28:00;;;;;;;0.08;0.08;;;;;;;;;;5004776;28;20104;-77
2023/10/26 12:30:49;;;;;;;0.10;0.10;;;;;;;;;;5032320;23;20041;-74
2023/10/26 12:33:17;;;;;;;0.00;0.00;;;;;;;;;;5026853;28;20053;-71
2023/10/26 12:35:46;;;;;;;0.00;0.00;;;;;;;;;;5027433;28;20132;-79
2023/10/26 12:38:14;;;;;;;0.10;0.10;;;;;;;;;;5032558;28;20140;-73
2023/10/26 12:40:41;;;;;;;0.65;0.30;;;;;;;;;;5022757;28;20037;-73
2023/10/26 12:43:09;;;;;;;0.25;0.25;;;;;;;;;;5025757;28;20530;-72
2023/10/26 12:45:37;;;;;;;0.00;0.00;;;;;;;;;;5028259;28;20458;-75
2023/10/26 12:48:06;;;;;;;0.10;0.10;;;;;;;;;;5030755;28;20132;-73
2023/10/26 12:50:34;;;;;;;0.10;0.10;;;;;;;;;;5026232;28;20156;-72
2023/10/26 12:53:01;;;;;;;0.10;0.10;;;;;;;;;;5021055;28;20048;-75
2023/10/26 12:55:29;;;;;;;0.35;0.35;;;;;;;;;;5028171;28;20096;-74
2023/10/26 12:57:57;;;;;;;0.10;0.10;;;;;;;;;;5026315;28;20041;-73
2023/10/26 13:00:26;;;;;;;0.00;0.00;;;;;;;;;;5035084;28;20139;-73
2023/10/26 13:02:53;;;;;;;0.00;0.00;;;;;;;;;;5028603;28;20507;-73
2023/10/26 13:05:22;;;;;;;0.10;0.10;;;;;;;;;;5031192;28;20511;-73
2023/10/26 13:07:49;;;;;;;0.08;0.08;;;;;;;;;;5028854;28;20049;-72
2023/10/26 13:10:17;;;;;;;0.03;0.03;;;;;;;;;;5026216;28;20053;-73
2023/10/26 13:12:47;;;;;;;0.10;0.10;;;;;;;;;;5022589;28;20053;-73
2023/10/26 13:15:14;;;;;;;0.00;0.00;;;;;;;;;;5021822;28;20041;-75
2023/10/26 13:17:48;;;;;;;0.00;0.00;;;;;;;;;;5021770;28;20053;-73
2023/10/26 13:20:15;;;;;;;0.03;0.03;;;;;;;;;;5024915;28;20439;-74
2023/10/26 13:22:43;;;;;;;0.00;0.00;;;;;;;;;;5026450;28;20542;-75
2023/10/26 13:25:10;;;;;;;0.00;0.00;;;;;;;;;;5023418;28;20041;-74
2023/10/26 13:27:38;;;;;;;0.00;0.00;;;;;;;;;;5022952;28;20046;-73
2023/10/26 13:30:06;;;;;;;0.08;0.08;;;;;;;;;;5023661;28;20048;-74
2023/10/26 13:32:33;;;;;;;0.00;0.00;;;;;;;;;;5024422;28;20452;-76
2023/10/26 13:35:01;;;;;;;0.00;0.00;;;;;;;;;;5026397;28;20050;-73
2023/10/26 13:37:28;;;;;;;0.10;0.10;;;;;;;;;;5026235;28;20064;-74
2023/10/26 13:39:56;;;;;;;0.00;0.00;;;;;;;;;;5024863;28;20049;-74
2023/10/26 13:42:23;;;;;;;0.35;0.35;;;;;;;;;;5027023;28;20538;-73
2023/10/26 13:44:51;;;;;;;0.05;0.05;;;;;;;;;;5021055;28;20050;-73
2023/10/26 13:47:18;;;;;;;0.08;0.08;;;;;;;;;;5023048;28;20053;-73
2023/10/26 13:49:46;;;;;;;0.00;0.00;;;;;;;;;;5020786;28;20045;-73
2023/10/26 13:52:13;;;;;;;0.00;0.00;;;;;;;;;;5022519;28;20571;-74
2023/10/26 13:54:41;;;;;;;3.15;0.70;;;;;;;;;;5020754;28;20554;-75
2023/10/26 13:57:08;;;;;;;0.10;0.10;;;;;;;;;;5024696;28;20082;-74
2023/10/26 13:59:37;;;;;;;0.00;0.00;;;;;;;;;;5028284;28;20077;-73
2023/10/26 14:02:05;;;;;;;0.10;0.10;;;;;;;;;;5027986;28;20045;-76
2023/10/26 14:04:33;;;;;;;0.13;0.13;;;;;;;;;;5009025;28;20511;-74
2023/10/26 14:07:04;;;;;;;0.08;0.08;;;;;;;;;;5028869;28;20132;-74
2023/10/26 14:09:32;;;;;;;0.10;0.10;;;;;;;;;;5023680;28;20049;-73
2023/10/26 14:12:01;;;;;;;1.05;0.57;;;;;;;;;;5026427;28;20088;-74
2023/10/26 14:14:29;;;;;;;0.10;0.10;;;;;;;;;;5024682;28;20054;-75
2023/10/26 14:16:57;;;;;;;0.10;0.10;;;;;;;;;;5037345;28;20041;-73
2023/10/26 14:19:25;;;;;;;0.00;0.00;;;;;;;;;;5023884;28;20111;-73
2023/10/26 14:21:52;;;;;;;0.57;0.20;;;;;;;;;;5027052;28;20049;-74
2023/10/26 14:24:19;;;;;;;0.10;0.10;;;;;;;;;;5032548;28;20052;-73
2023/10/26 14:26:47;;;;;;;0.10;0.10;;;;;;;;;;5027064;28;20053;-73
2023/10/26 14:29:14;;;;;;;0.10;0.10;;;;;;;;;;5030192;28;20051;-73
2023/10/26 14:31:42;;;;;;;0.10;0.10;;;;;;;;;;5013596;28;20041;-72
2023/10/26 14:34:09;;;;;;;0.20;0.20;;;;;;;;;;5034695;28;20072;-73
2023/10/26 14:36:37;;;;;;;0.10;0.10;;;;;;;;;;5034179;28;20047;-71
2023/10/26 14:39:04;;;;;;;0.95;0.95;;;;;;;;;;5021045;28;20403;-73
2023/10/26 14:41:32;;;;;;;0.28;0.28;;;;;;;;;;5034777;28;20053;-72
2023/10/26 14:44:00;;;;;;;0.20;0.20;;;;;;;;;;5022930;28;20056;-72
2023/10/26 14:46:31;;;;;;;0.10;0.10;;;;;;;;;;5027473;28;20045;-72
2023/10/26 14:49:00;;;;;;;0.00;0.00;;;;;;;;;;5027361;28;20057;-71
2023/10/26 14:51:27;;;;;;;0.17;0.17;;;;;;;;;;5042884;28;20564;-73
2023/10/26 14:53:55;;;;;;;0.20;0.20;;;;;;;;;;5027717;28;20050;-71